Time;durP1;ratioP1;P1;durP2;ratioP2;P2;SDS_P1;SDS_P2;PMS_P1;PMS_P2;Temp;Humidity;BMP_temperature;BMP_pressure;BME280_temperature;BME280_humidity;BME280_pressure;Samples;Min_cycle;Max_cycle;Signal;HPM_P1;HPM_P2
2022/04/14 00:00:37;;;;;;;32.60;15.17;;;6.70;96.50;5.80;100725;;;;575059;247;24090;-79
2022/04/14 00:03:05;;;;;;;33.47;16.30;;;6.60;96.50;5.80;100723;;;;565558;250;24110;-78
2022/04/14 00:05:33;;;;;;;23.87;14.13;;;6.70;96.60;5.70;100728;;;;571402;247;24090;-77
2022/04/14 00:08:01;;;;;;;26.57;14.97;;;6.60;96.80;5.80;100728;;;;571301;247;24076;-79
2022/04/14 00:10:29;;;;;;;28.80;14.67;;;6.60;96.90;5.80;100728;;;;570676;247;24128;-81
2022/04/14 00:12:57;;;;;;;26.07;18.23;;;6.60;97.00;5.70;100725;;;;572037;247;24127;-77
2022/04/14 00:15:25;;;;;;;27.93;15.23;;;6.60;97.10;5.70;100718;;;;572232;247;24105;-77
2022/04/14 00:17:54;;;;;;;32.80;15.90;;;6.60;97.50;5.70;100718;;;;565462;246;24158;-79
2022/04/14 00:20:25;;;;;;;24.80;14.63;;;6.60;97.90;5.70;100709;;;;571780;247;24111;-80
2022/04/14 00:22:50;;;;;;;26.43;14.97;;;6.60;97.60;5.70;100713;;;;571627;247;24079;-78
2022/04/14 00:25:20;;;;;;;25.87;14.60;;;6.50;97.70;5.70;100712;;;;571626;247;24147;-79
2022/04/14 00:27:48;;;;;;;26.90;13.33;;;6.50;97.80;5.70;100705;;;;571827;247;24091;-78
2022/04/14 00:30:15;;;;;;;30.83;15.20;;;6.50;98.00;5.60;100704;;;;571256;247;24111;-78
2022/04/14 00:32:46;;;;;;;36.80;14.87;;;6.50;98.40;5.60;100704;;;;570314;247;24084;-78
2022/04/14 00:35:14;;;;;;;30.30;14.37;;;6.40;98.40;5.60;100700;;;;570942;247;24084;-79
2022/04/14 00:37:44;;;;;;;29.70;14.73;;;6.50;98.50;5.60;100700;;;;571159;247;24088;-79
2022/04/14 00:40:13;;;;;;;26.13;14.73;;;6.50;98.60;5.60;100699;;;;579609;247;24136;-79
2022/04/14 00:42:37;;;;;;;26.30;14.37;;;6.50;98.60;5.60;100695;;;;571338;247;24092;-79
2022/04/14 00:45:06;;;;;;;24.67;13.67;;;6.40;98.70;5.60;100703;;;;571833;247;24082;-80
2022/04/14 00:47:33;;;;;;;24.50;14.57;;;6.40;98.80;5.60;100701;;;;571406;247;24113;-78
2022/04/14 00:50:04;;;;;;;23.13;14.90;;;6.40;98.90;5.60;100698;;;;571010;247;24107;-81
2022/04/14 00:52:32;;;;;;;23.17;13.43;;;6.40;99.00;5.60;100691;;;;569054;247;24133;-79
2022/04/14 00:54:57;;;;;;;31.47;15.77;;;6.40;99.10;5.60;100690;;;;571239;247;24149;-78
2022/04/14 00:57:25;;;;;;;30.47;13.97;;;6.50;99.20;5.70;100689;;;;572590;246;24055;-81
2022/04/14 00:59:54;;;;;;;25.63;14.07;;;6.50;99.20;5.70;100681;;;;573560;247;24085;-82
2022/04/14 01:02:22;;;;;;;23.87;13.47;;;6.50;99.20;5.70;100676;;;;573236;247;24060;-82
2022/04/14 01:04:49;;;;;;;22.83;14.03;;;6.60;99.30;5.70;100675;;;;572852;247;24102;-79
2022/04/14 01:07:17;;;;;;;27.03;14.13;;;6.60;99.30;5.70;100676;;;;572562;247;24086;-82
2022/04/14 01:09:45;;;;;;;22.93;14.07;;;6.60;99.40;5.80;100676;;;;582402;247;24093;-81
2022/04/14 01:12:13;;;;;;;22.87;13.90;;;6.70;99.40;5.80;100670;;;;572363;247;24097;-78
2022/04/14 01:14:42;;;;;;;25.03;13.23;;;6.70;99.30;5.80;100680;;;;572528;247;24102;-79
2022/04/14 01:17:13;;;;;;;27.43;14.37;;;6.70;99.20;5.80;100673;;;;572251;247;24123;-79
2022/04/14 01:19:41;;;;;;;21.53;12.87;;;6.70;99.20;5.90;100666;;;;572011;247;24129;-80
2022/04/14 01:22:18;;;;;;;24.50;14.03;;;6.70;99.20;5.90;100667;;;;572385;247;24123;-82
2022/04/14 01:24:46;;;;;;;30.00;13.97;;;6.70;99.10;5.90;100664;;;;572359;247;24102;-80
2022/04/14 01:27:13;;;;;;;25.43;14.03;;;6.70;99.10;5.90;100664;;;;572093;247;24118;-79
2022/04/14 01:29:41;;;;;;;27.03;15.10;;;6.70;99.10;5.90;100654;;;;572106;247;24081;-78
2022/04/14 01:32:10;;;;;;;25.40;14.30;;;6.70;99.10;5.90;100661;;;;571972;247;24099;-79
2022/04/14 01:34:38;;;;;;;23.90;14.40;;;6.70;99.10;5.90;100661;;;;571573;247;24080;-79
2022/04/14 01:37:10;;;;;;;23.00;13.47;;;6.70;99.10;5.80;100660;;;;571580;247;24124;-78
2022/04/14 01:39:34;;;;;;;22.63;13.73;;;6.70;99.10;5.80;100649;;;;579121;247;24094;-79
2022/04/14 01:42:06;;;;;;;25.47;13.50;;;6.70;99.10;5.80;100651;;;;571186;247;24192;-79
2022/04/14 01:44:34;;;;;;;20.43;13.63;;;6.60;99.10;5.80;100650;;;;570133;247;24090;-81
2022/04/14 01:46:59;;;;;;;27.23;13.70;;;6.60;99.20;5.80;100646;;;;571242;247;24095;-78
2022/04/14 01:49:27;;;;;;;25.23;13.97;;;6.60;99.20;5.80;100648;;;;571238;247;24135;-79
2022/04/14 01:51:55;;;;;;;20.53;11.83;;;6.60;99.20;5.80;100637;;;;571048;247;24084;-77
2022/04/14 01:54:24;;;;;;;25.17;13.53;;;6.60;99.30;5.70;100633;;;;571254;247;24103;-78
2022/04/14 01:56:52;;;;;;;26.17;17.75;;;6.60;99.30;5.70;100627;;;;566449;247;35304;-78
2022/04/14 01:59:20;;;;;;;25.63;14.90;;;6.50;99.80;5.60;100630;;;;571324;247;24128;-80
2022/04/14 02:01:48;;;;;;;25.60;13.50;;;6.50;99.70;5.50;100622;;;;572369;247;24129;-84
2022/04/14 02:04:19;;;;;;;19.93;12.27;;;6.40;99.70;5.50;100618;;;;572478;247;24076;-81
2022/04/14 02:06:43;;;;;;;24.20;15.47;;;6.40;99.80;5.40;100612;;;;572057;247;24179;-82
2022/04/14 02:09:12;;;;;;;24.13;12.83;;;6.30;99.90;5.40;100612;;;;573073;246;24089;-84
2022/04/14 02:11:42;;;;;;;19.63;11.80;;;6.30;99.90;5.40;100614;;;;573746;247;24117;-85
2022/04/14 02:14:11;;;;;;;22.47;12.07;;;6.20;99.90;5.30;100611;;;;573028;247;24148;-81
2022/04/14 02:16:35;;;;;;;18.63;10.67;;;6.20;99.90;5.30;100610;;;;571150;247;24112;-83
2022/04/14 02:19:03;;;;;;;21.70;12.27;;;6.20;99.90;5.30;100603;;;;573032;247;24084;-84
2022/04/14 02:21:31;;;;;;;18.73;10.70;;;6.20;99.90;5.40;100605;;;;573122;247;24197;-85
2022/04/14 02:23:59;;;;;;;23.03;11.10;;;6.20;99.90;5.30;100604;;;;572996;247;24131;-85
2022/04/14 02:26:27;;;;;;;21.27;12.87;;;6.20;99.90;5.30;100597;;;;573006;247;24105;-83
2022/04/14 02:28:55;;;;;;;20.83;11.20;;;6.20;99.90;5.30;100591;;;;572689;247;24104;-82
2022/04/14 02:31:25;;;;;;;21.77;11.27;;;6.20;99.90;5.30;100590;;;;572624;247;24109;-81
2022/04/14 02:33:50;;;;;;;14.23;9.57;;;6.10;99.90;5.30;100583;;;;572577;247;24136;-81
2022/04/14 02:36:19;;;;;;;23.37;11.17;;;6.10;99.90;5.30;100588;;;;572747;247;24140;-82
2022/04/14 02:38:47;;;;;;;17.40;10.13;;;6.10;99.90;5.30;100596;;;;572666;246;24139;-82
2022/04/14 02:41:15;;;;;;;19.13;10.80;;;6.10;99.90;5.30;100601;;;;572719;247;24094;-83
2022/04/14 02:43:43;;;;;;;20.30;9.57;;;6.10;99.90;5.30;100589;;;;572335;247;24135;-81
2022/04/14 02:46:11;;;;;;;22.07;11.03;;;6.10;99.90;5.20;100591;;;;571429;247;24114;-77
2022/04/14 02:48:40;;;;;;;19.30;10.60;;;6.10;99.90;5.20;100583;;;;571383;247;24076;-79
2022/04/14 02:51:11;;;;;;;15.80;9.77;;;6.10;99.90;5.20;100575;;;;571289;247;25161;-80
2022/04/14 02:53:41;;;;;;;20.60;11.03;;;6.10;99.90;5.20;100579;;;;569536;247;24098;-78
2022/04/14 02:56:06;;;;;;;20.17;10.73;;;6.10;99.90;5.20;100579;;;;571258;247;24094;-78
2022/04/14 02:58:37;;;;;;;15.23;10.20;;;6.10;99.90;5.20;100576;;;;571538;247;24091;-77
2022/04/14 03:01:02;;;;;;;20.27;11.40;;;6.10;99.90;5.20;100574;;;;571498;247;24102;-75
2022/04/14 03:03:31;;;;;;;20.70;10.53;;;6.10;99.90;5.20;100577;;;;571454;247;24085;-77
2022/04/14 03:05:59;;;;;;;18.60;10.87;;;6.10;99.90;5.20;100570;;;;571306;247;24128;-79
2022/04/14 03:08:27;;;;;;;24.55;15.07;;;6.10;99.90;5.20;100575;;;;566364;247;35286;-79
2022/04/14 03:10:56;;;;;;;24.67;12.07;;;6.10;99.90;5.20;100577;;;;571328;247;24138;-77
2022/04/14 03:13:25;;;;;;;26.77;12.13;;;6.00;99.90;5.10;100587;;;;571381;247;24069;-79
2022/04/14 03:15:54;;;;;;;22.43;10.77;;;6.00;99.90;5.10;100587;;;;571292;247;24076;-78
2022/04/14 03:18:21;;;;;;;18.60;10.90;;;5.90;99.90;5.00;100577;;;;571376;247;24124;-77
2022/04/14 03:20:49;;;;;;;15.77;9.87;;;5.90;99.90;5.00;100594;;;;571865;246;24108;-79
2022/04/14 03:23:17;;;;;;;19.97;9.93;;;5.90;99.90;5.00;100587;;;;572626;247;24080;-78
2022/04/14 03:25:49;;;;;;;14.93;9.77;;;5.90;99.90;5.00;100586;;;;572307;247;24082;-79
2022/04/14 03:28:13;;;;;;;16.57;9.60;;;5.90;99.90;5.00;100577;;;;571846;247;24103;-77
2022/04/14 03:30:41;;;;;;;18.97;10.67;;;5.90;99.90;5.00;100576;;;;572000;247;24143;-78
2022/04/14 03:33:16;;;;;;;16.13;9.33;;;5.90;99.90;5.00;100569;;;;571877;247;25124;-76
2022/04/14 03:35:39;;;;;;;19.57;9.67;;;5.90;99.90;5.00;100572;;;;571393;247;24152;-77
2022/04/14 03:38:08;;;;;;;21.30;10.20;;;5.90;99.90;5.10;100558;;;;571891;247;25106;-78
2022/04/14 03:40:36;;;;;;;18.57;8.93;;;5.90;99.90;5.10;100561;;;;571694;247;24084;-78
2022/04/14 03:43:03;;;;;;;14.77;8.90;;;6.00;99.90;5.10;100550;;;;571848;247;24103;-77
2022/04/14 03:45:31;;;;;;;15.97;9.57;;;6.00;99.90;5.20;100558;;;;571352;247;24088;-78
2022/04/14 03:47:59;;;;;;;17.47;9.47;;;6.10;99.90;5.20;100556;;;;570245;247;24118;-77
2022/04/14 03:50:28;;;;;;;17.43;10.17;;;6.10;99.90;5.20;100549;;;;571514;247;24103;-77
2022/04/14 03:52:56;;;;;;;16.83;9.20;;;6.10;99.90;5.20;100545;;;;571554;247;24094;-77
2022/04/14 03:55:24;;;;;;;13.53;8.57;;;6.10;99.90;5.30;100541;;;;571504;247;24127;-77
2022/04/14 03:57:52;;;;;;;16.63;9.30;;;6.20;99.90;5.30;100534;;;;571228;247;24185;-77
2022/04/14 04:00:20;;;;;;;18.23;9.03;;;6.30;99.90;5.40;100543;;;;571346;247;24081;-77
2022/04/14 04:02:48;;;;;;;17.03;8.77;;;6.30;99.90;5.50;100538;;;;571267;247;24092;-77
2022/04/14 04:05:16;;;;;;;20.17;9.47;;;6.30;99.90;5.50;100541;;;;570013;247;24080;-78
2022/04/14 04:07:44;;;;;;;16.13;9.20;;;6.30;99.90;5.50;100534;;;;571396;247;24094;-79
2022/04/14 04:10:12;;;;;;;19.70;12.88;;;6.40;99.90;5.60;100530;;;;566408;247;35267;-79
2022/04/14 04:12:40;;;;;;;21.57;12.07;;;6.40;99.90;5.70;100534;;;;571335;247;24119;-79
2022/04/14 04:15:12;;;;;;;14.60;9.50;;;6.50;99.90;5.80;100527;;;;571440;247;24085;-79
2022/04/14 04:17:38;;;;;;;20.40;9.17;;;6.70;99.90;6.00;100530;;;;574778;247;24084;-80
2022/04/14 04:20:05;;;;;;;15.53;9.33;;;6.80;99.90;6.10;100516;;;;571262;247;24096;-79
2022/04/14 04:22:36;;;;;;;18.27;10.40;;;7.00;99.90;6.30;100522;;;;569360;247;24193;-80
2022/04/14 04:25:01;;;;;;;18.63;10.03;;;7.10;99.90;6.40;100525;;;;571157;247;24121;-78
2022/04/14 04:27:29;;;;;;;22.63;9.57;;;7.20;99.90;6.50;100533;;;;571243;247;24082;-79
2022/04/14 04:29:57;;;;;;;16.73;10.97;;;7.30;99.90;6.60;100533;;;;571318;247;24076;-78
2022/04/14 04:32:24;;;;;;;16.83;10.80;;;7.40;99.90;6.60;100529;;;;571881;246;24094;-80
2022/04/14 04:34:52;;;;;;;20.30;12.37;;;7.50;99.90;6.70;100530;;;;572516;247;24075;-80
2022/04/14 04:37:20;;;;;;;22.10;11.23;;;7.50;99.80;6.70;100528;;;;572299;247;24097;-79
2022/04/14 04:39:49;;;;;;;18.80;10.80;;;7.60;99.60;6.80;100529;;;;572094;247;24095;-78
2022/04/14 04:42:17;;;;;;;19.90;11.27;;;7.60;99.60;6.80;100518;;;;572003;247;24099;-79
2022/04/14 04:44:45;;;;;;;18.33;10.80;;;7.70;99.60;6.90;100532;;;;571985;247;24078;-80
2022/04/14 04:47:13;;;;;;;16.10;10.37;;;7.70;99.40;7.00;100525;;;;571637;247;24091;-80
2022/04/14 04:49:41;;;;;;;16.47;10.97;;;7.80;99.10;7.00;100512;;;;571540;247;25142;-79
2022/04/14 04:52:13;;;;;;;36.63;12.93;;;7.90;98.70;7.10;100514;;;;571504;247;24100;-79
2022/04/14 04:54:38;;;;;;;30.40;12.23;;;7.90;98.50;7.10;100522;;;;564904;250;24114;-80
2022/04/14 04:57:06;;;;;;;36.03;12.20;;;7.90;98.50;7.10;100512;;;;571581;247;24087;-79
2022/04/14 04:59:34;;;;;;;21.73;12.03;;;7.90;98.40;7.20;100518;;;;571548;247;24102;-80
2022/04/14 05:02:02;;;;;;;23.03;11.37;;;8.00;98.30;7.20;100520;;;;571564;247;24101;-79
2022/04/14 05:04:30;;;;;;;20.27;11.67;;;8.00;98.20;7.30;100515;;;;571782;247;24079;-79
2022/04/14 05:06:57;;;;;;;23.27;10.87;;;8.10;98.00;7.40;100506;;;;571613;247;24093;-79
2022/04/14 05:09:26;;;;;;;36.60;12.17;;;8.30;97.60;7.60;100502;;;;571488;247;24120;-80
2022/04/14 05:11:55;;;;;;;24.27;10.63;;;8.60;97.10;7.80;100501;;;;571554;247;24093;-80
2022/04/14 05:14:23;;;;;;;22.30;11.53;;;8.50;97.10;8.10;100505;;;;571480;247;24089;-80
2022/04/14 05:16:51;;;;;;;24.77;11.33;;;8.80;96.60;8.60;100498;;;;571561;247;24091;-78
2022/04/14 05:19:18;;;;;;;24.17;11.00;;;9.20;96.10;9.50;100494;;;;571565;247;24085;-79
2022/04/14 05:21:48;;;;;;;15.43;11.10;;;10.00;94.60;10.40;100500;;;;571585;247;24093;-79
2022/04/14 05:24:14;;;;;;;20.53;10.80;;;10.90;92.80;11.30;100504;;;;571506;247;24141;-80
2022/04/14 05:26:43;;;;;;;18.00;11.87;;;11.80;90.50;12.30;100508;;;;571528;247;24085;-79
2022/04/14 05:29:13;;;;;;;19.43;11.10;;;12.70;85.30;13.20;100493;;;;571578;247;24065;-80
2022/04/14 05:31:41;;;;;;;18.83;10.90;;;13.60;79.20;14.00;100501;;;;571696;247;24087;-78
2022/04/14 05:34:08;;;;;;;51.30;14.23;;;14.50;75.10;15.00;100501;;;;571729;247;24104;-80
2022/04/14 05:36:37;;;;;;;50.20;14.73;;;16.40;67.60;15.90;100493;;;;571742;247;24088;-79
2022/04/14 05:39:05;;;;;;;22.20;13.00;;;16.30;67.50;16.90;100498;;;;571705;247;24064;-80
2022/04/14 05:41:34;;;;;;;25.93;12.40;;;17.30;63.90;17.90;100499;;;;571708;247;24062;-81
2022/04/14 05:44:05;;;;;;;23.13;13.80;;;18.30;60.30;18.60;100497;;;;571915;246;23088;-79
2022/04/14 05:46:30;;;;;;;18.10;12.70;;;19.20;58.00;19.60;100503;;;;580963;247;24091;-79
2022/04/14 05:48:58;;;;;;;16.97;13.37;;;20.00;55.40;20.40;100504;;;;571726;243;24084;-78
2022/04/14 05:51:26;;;;;;;25.93;13.57;;;20.90;53.40;21.20;100509;;;;571831;247;23128;-78
2022/04/14 05:53:54;;;;;;;48.03;17.53;;;21.70;51.20;22.00;100508;;;;571527;247;24140;-79
2022/04/14 05:56:22;;;;;;;90.17;20.33;;;22.60;49.60;22.90;100516;;;;571612;247;24145;-80
2022/04/14 05:58:50;;;;;;;28.37;15.30;;;23.50;48.30;23.90;100526;;;;571509;247;24095;-80
2022/04/14 06:01:18;;;;;;;20.07;14.83;;;24.40;46.50;24.50;100520;;;;571761;247;24130;-79
2022/04/14 06:03:45;;;;;;;25.33;14.10;;;25.10;44.80;25.20;100519;;;;571546;247;24065;-79
2022/04/14 06:06:13;;;;;;;21.00;13.73;;;25.80;43.60;25.70;100518;;;;571508;247;24113;-80
2022/04/14 06:08:44;;;;;;;24.50;13.63;;;26.40;42.40;26.30;100519;;;;571866;247;24128;-78
2022/04/14 06:11:10;;;;;;;22.53;14.73;;;27.40;40.60;26.80;100524;;;;571818;247;23111;-78
2022/04/14 06:13:39;;;;;;;22.90;14.23;;;27.90;39.80;27.30;100523;;;;572059;247;23086;-79
2022/04/14 06:16:07;;;;;;;22.83;13.77;;;28.50;38.90;28.00;100530;;;;572019;247;23137;-80
2022/04/14 06:18:37;;;;;;;19.25;15.00;;;29.00;38.60;28.50;100530;;;;571661;247;23098;-80
2022/04/14 06:21:05;;;;;;;17.60;14.38;;;29.00;38.50;29.20;100522;;;;571533;247;23094;-81
2022/04/14 06:23:33;;;;;;;18.05;14.32;;;29.70;37.90;29.90;100524;;;;571402;247;24076;-80
2022/04/14 06:26:02;;;;;;;19.62;15.00;;;30.40;36.90;30.40;100525;;;;571610;247;23087;-80
2022/04/14 06:28:34;;;;;;;30.92;15.10;;;30.90;36.30;30.90;100522;;;;571675;247;23091;-80
2022/04/14 06:30:58;;;;;;;19.08;14.38;;;31.50;35.20;31.00;100528;;;;571772;247;23114;-80
2022/04/14 06:33:30;;;;;;;19.85;14.43;;;31.70;35.00;31.30;100521;;;;571647;247;23087;-81
2022/04/14 06:35:54;;;;;;;22.67;14.57;;;31.90;34.10;31.40;100534;;;;571535;247;24075;-79
2022/04/14 06:38:24;;;;;;;20.27;15.52;;;32.10;33.60;31.50;100532;;;;571459;247;23100;-79
2022/04/14 06:40:50;;;;;;;20.35;16.12;;;32.20;34.30;31.70;100531;;;;571588;247;23090;-80
2022/04/14 06:43:18;;;;;;;19.20;15.15;;;32.30;34.10;32.10;100544;;;;571904;247;23130;-81
2022/04/14 06:45:49;;;;;;;17.52;14.65;;;32.60;33.90;32.50;100547;;;;572018;247;23046;-80
2022/04/14 06:48:13;;;;;;;24.48;15.52;;;32.90;33.90;33.00;100546;;;;572275;247;23093;-80
2022/04/14 06:50:41;;;;;;;25.90;15.40;;;33.40;33.30;33.70;100544;;;;572106;247;23128;-79
2022/04/14 06:53:09;;;;;;;26.90;15.13;;;34.10;33.20;34.30;100540;;;;571705;247;23151;-81
2022/04/14 06:55:37;;;;;;;22.70;15.65;;;34.60;32.50;34.50;100543;;;;572799;246;23138;-80
2022/04/14 06:58:08;;;;;;;40.08;18.17;;;34.90;32.10;34.20;100542;;;;571308;247;23149;-80
2022/04/14 07:00:33;;;;;;;22.45;15.07;;;34.80;31.70;33.90;100545;;;;570009;246;23157;-80
2022/04/14 07:03:01;;;;;;;19.75;14.80;;;34.60;31.40;33.70;100548;;;;572803;247;24118;-81
2022/04/14 07:05:29;;;;;;;19.87;15.38;;;34.30;31.50;33.20;100546;;;;572742;247;23186;-79
2022/04/14 07:07:57;;;;;;;17.83;15.32;;;33.90;31.60;32.90;100548;;;;572996;247;24117;-77
2022/04/14 07:10:27;;;;;;;17.25;15.40;;;33.40;32.30;32.90;100547;;;;572800;247;24128;-78
2022/04/14 07:12:55;;;;;;;15.70;14.20;;;33.40;32.50;32.90;100537;;;;572891;247;23187;-81
2022/04/14 07:15:22;;;;;;;17.00;15.02;;;33.40;32.40;32.80;100546;;;;572569;247;23081;-80
2022/04/14 07:17:50;;;;;;;17.20;15.10;;;33.30;32.50;32.60;100539;;;;572290;247;23091;-79
2022/04/14 07:20:18;;;;;;;17.85;15.63;;;33.10;32.50;32.30;100548;;;;572408;247;23132;-81
2022/04/14 07:22:46;;;;;;;16.60;14.87;;;32.80;33.00;32.00;100541;;;;571906;247;23092;-79
2022/04/14 07:25:17;;;;;;;19.55;15.95;;;32.60;32.80;31.70;100540;;;;580356;247;24108;-79
2022/04/14 07:27:45;;;;;;;20.55;15.48;;;32.30;33.10;32.00;100539;;;;571383;247;24138;-80
2022/04/14 07:30:10;;;;;;;20.35;14.87;;;32.40;33.30;32.20;100545;;;;571593;247;24084;-82
2022/04/14 07:32:38;;;;;;;19.23;15.38;;;32.50;33.40;32.70;100542;;;;571762;247;23090;-81
2022/04/14 07:35:06;;;;;;;39.85;18.90;;;32.90;33.20;32.80;100538;;;;580431;247;23089;-82
2022/04/14 07:37:34;;;;;;;21.55;16.58;;;33.10;32.60;32.60;100534;;;;571765;247;23103;-79
2022/04/14 07:40:01;;;;;;;22.00;16.83;;;33.10;32.70;32.60;100546;;;;571771;247;24111;-82
2022/04/14 07:42:35;;;;;;;19.50;16.30;;;33.00;33.00;32.40;100537;;;;571628;247;24144;-80
2022/04/14 07:45:00;;;;;;;22.65;15.82;;;32.90;32.70;32.30;100534;;;;571109;247;23104;-83
2022/04/14 07:47:28;;;;;;;20.88;16.70;;;32.70;33.20;33.00;100533;;;;571665;247;23099;-81
2022/04/14 07:49:56;;;;;;;21.40;16.55;;;33.20;33.10;33.60;100528;;;;571402;247;23126;-80
2022/04/14 07:52:24;;;;;;;17.98;16.08;;;33.80;32.40;34.30;100529;;;;571602;247;23089;-80
2022/04/14 07:54:52;;;;;;;18.58;16.70;;;34.50;32.30;34.80;100523;;;;571576;247;23095;-80
2022/04/14 07:57:20;;;;;;;19.20;17.35;;;35.10;31.80;34.80;100522;;;;571670;247;24103;-81
2022/04/14 07:59:49;;;;;;;20.02;17.58;;;35.50;31.50;35.00;100514;;;;571568;247;24143;-79
2022/04/14 08:02:19;;;;;;;31.92;17.92;;;35.40;31.60;34.90;100521;;;;571669;247;23107;-81
2022/04/14 08:04:46;;;;;;;21.60;18.08;;;35.40;31.60;34.80;100524;;;;571275;247;23147;-80
2022/04/14 08:07:18;;;;;;;19.33;16.90;;;35.30;31.90;34.70;100521;;;;571890;246;24083;-80
2022/04/14 08:09:43;;;;;;;18.50;16.67;;;35.00;31.70;34.30;100526;;;;572181;247;24151;-80
2022/04/14 08:12:12;;;;;;;19.67;17.67;;;35.00;31.70;33.50;100527;;;;571781;247;23091;-80
2022/04/14 08:14:39;;;;;;;18.75;16.77;;;34.50;31.90;32.50;100528;;;;571744;247;24416;-79
2022/04/14 08:17:07;;;;;;;20.23;17.48;;;33.70;32.40;31.70;100529;;;;571337;247;24072;-79
2022/04/14 08:19:38;;;;;;;23.80;17.37;;;32.80;32.80;30.80;100524;;;;571522;247;23104;-80
2022/04/14 08:22:03;;;;;;;21.65;17.27;;;31.90;33.70;30.00;100522;;;;571484;247;24134;-80
2022/04/14 08:24:32;;;;;;;32.17;18.37;;;31.10;34.60;29.30;100523;;;;570295;247;24123;-80
2022/04/14 08:27:00;;;;;;;21.67;17.55;;;30.30;35.30;28.60;100526;;;;570216;247;23106;-79
2022/04/14 08:29:29;;;;;;;20.92;17.45;;;29.50;35.80;28.00;100525;;;;571479;247;23096;-79
2022/04/14 08:31:56;;;;;;;18.37;16.20;;;28.80;36.50;27.60;100523;;;;571355;247;23102;-81
2022/04/14 08:34:24;;;;;;;19.83;17.40;;;28.30;37.30;27.20;100516;;;;578603;247;23093;-79
2022/04/14 08:36:52;;;;;;;21.63;17.50;;;27.90;38.00;27.10;100516;;;;570303;247;24108;-79
2022/04/14 08:39:19;;;;;;;22.33;18.23;;;27.70;38.40;27.10;100513;;;;571223;247;24099;-79
2022/04/14 08:41:47;;;;;;;21.63;17.17;;;27.60;38.80;27.20;100510;;;;571146;247;23108;-79
2022/04/14 08:44:15;;;;;;;21.90;17.03;;;27.70;38.80;27.40;100509;;;;578536;247;23215;-79
2022/04/14 08:46:46;;;;;;;22.07;17.07;;;27.80;38.70;27.70;100514;;;;578738;247;24121;-79
2022/04/14 08:49:16;;;;;;;19.83;17.37;;;28.50;38.40;28.10;100511;;;;570813;247;23106;-78
2022/04/14 08:51:44;;;;;;;20.20;17.02;;;28.50;38.40;28.50;100511;;;;570652;247;23097;-79
2022/04/14 08:54:13;;;;;;;27.77;16.90;;;28.90;37.90;28.90;100514;;;;571038;247;23102;-78
2022/04/14 08:56:41;;;;;;;24.20;17.67;;;29.40;37.60;29.00;100511;;;;568558;247;23095;-79
2022/04/14 08:59:06;;;;;;;23.23;18.23;;;29.60;37.40;29.20;100517;;;;570633;247;23114;-81
2022/04/14 09:01:34;;;;;;;22.10;17.45;;;29.80;37.10;29.10;100517;;;;571573;247;23089;-81
2022/04/14 09:04:02;;;;;;;22.73;18.40;;;29.80;36.70;29.10;100517;;;;572279;247;23105;-80
2022/04/14 09:06:32;;;;;;;26.92;18.45;;;29.80;36.70;29.10;100519;;;;570713;247;23096;-81
2022/04/14 09:09:00;;;;;;;25.05;17.80;;;29.80;37.00;29.30;100512;;;;571998;247;23100;-79
2022/04/14 09:11:26;;;;;;;22.87;18.67;;;29.90;37.00;29.70;100509;;;;571273;247;23111;-81
2022/04/14 09:13:54;;;;;;;23.48;18.05;;;30.20;36.30;29.70;100511;;;;570212;247;24132;-80
2022/04/14 09:16:22;;;;;;;22.23;16.90;;;30.40;36.00;29.60;100520;;;;571608;247;23141;-80
2022/04/14 09:18:53;;;;;;;24.25;17.67;;;30.40;36.10;29.50;100521;;;;580813;246;23077;-80
2022/04/14 09:21:18;;;;;;;26.55;17.98;;;30.30;36.20;29.30;100512;;;;581541;246;23099;-81
2022/04/14 09:23:55;;;;;;;24.87;18.25;;;30.20;36.70;29.40;100515;;;;572846;247;23072;-82
2022/04/14 09:26:25;;;;;;;22.02;18.12;;;30.10;36.90;29.70;100511;;;;581283;247;24149;-80
2022/04/14 09:29:05;;;;;;;25.85;20.70;;;30.30;36.90;29.70;100511;;;;572254;247;23168;-80
2022/04/14 09:31:48;;;;;;;26.85;19.50;;;30.30;36.50;29.70;100507;;;;571633;247;23143;-79
2022/04/14 09:34:15;;;;;;;22.30;18.60;;;30.30;36.70;29.60;100509;;;;571768;247;23192;-82
2022/04/14 09:36:41;;;;;;;30.37;19.75;;;30.10;36.60;29.30;100512;;;;572046;247;23105;-80
2022/04/14 09:39:09;;;;;;;35.75;19.05;;;30.10;36.50;29.00;100511;;;;571813;247;23160;-79
2022/04/14 09:41:43;;;;;;;40.72;20.05;;;29.80;36.90;28.80;100509;;;;570683;247;23090;-81
2022/04/14 09:44:15;;;;;;;27.90;19.95;;;29.50;37.40;28.70;100506;;;;571827;247;24131;-80
2022/04/14 09:46:39;;;;;;;20.75;18.48;;;29.40;37.60;28.80;100507;;;;579991;247;24089;-80
2022/04/14 09:49:09;;;;;;;22.48;18.65;;;29.40;37.70;29.10;100501;;;;571182;247;24107;-81
2022/04/14 09:51:40;;;;;;;31.08;19.75;;;29.70;37.00;29.20;100499;;;;570146;247;24115;-80
2022/04/14 09:54:20;;;;;;;43.05;21.05;;;29.90;37.30;29.20;100491;;;;570958;247;23094;-78
2022/04/14 09:56:46;;;;;;;35.15;19.90;;;30.00;37.20;28.80;100500;;;;578853;247;23119;-79
2022/04/14 09:59:13;;;;;;;22.67;17.87;;;29.80;37.10;28.40;100498;;;;570592;247;23113;-78
2022/04/14 10:01:41;;;;;;;25.02;19.55;;;29.40;37.30;28.20;100491;;;;570806;247;23110;-79
2022/04/14 10:04:11;;;;;;;29.83;19.95;;;29.20;37.40;28.30;100493;;;;568644;247;23099;-79
2022/04/14 10:06:37;;;;;;;22.40;19.17;;;29.20;38.00;28.40;100490;;;;575820;247;23097;-78
2022/04/14 10:09:05;;;;;;;30.90;17.85;;;29.30;37.50;28.30;100490;;;;570997;247;23134;-79
2022/04/14 10:11:37;;;;;;;25.27;18.67;;;29.30;37.30;28.00;100487;;;;571099;247;23087;-78
2022/04/14 10:14:13;;;;;;;23.13;18.53;;;29.00;37.80;27.50;100483;;;;571242;247;23118;-79
2022/04/14 10:16:41;;;;;;;32.97;19.80;;;28.60;38.20;27.40;100494;;;;580208;247;24117;-79
2022/04/14 10:19:09;;;;;;;30.23;18.47;;;28.30;39.60;27.50;100489;;;;569553;247;23121;-78
2022/04/14 10:21:37;;;;;;;31.55;19.83;;;28.30;39.90;27.80;100491;;;;580493;247;23107;-79
2022/04/14 10:24:07;;;;;;;26.50;18.70;;;28.30;39.80;27.60;100497;;;;580517;247;23149;-81
2022/04/14 10:26:33;;;;;;;25.70;19.33;;;28.30;39.40;27.70;100508;;;;569028;247;23095;-79
2022/04/14 10:29:03;;;;;;;26.53;18.77;;;28.20;39.60;27.70;100497;;;;571741;247;23164;-79
2022/04/14 10:31:28;;;;;;;30.17;17.43;;;28.20;39.70;27.80;100501;;;;572588;247;24072;-80
2022/04/14 10:33:57;;;;;;;36.57;20.23;;;28.30;40.00;28.00;100502;;;;572836;247;23089;-79
2022/04/14 10:36:25;;;;;;;24.60;18.93;;;28.50;39.50;27.80;100495;;;;570954;247;24139;-80
2022/04/14 10:38:57;;;;;;;27.23;20.00;;;28.40;39.60;27.50;100499;;;;572184;247;24131;-80
2022/04/14 10:41:22;;;;;;;23.97;19.60;;;28.20;39.80;27.00;100506;;;;569171;247;23113;-78
2022/04/14 10:43:53;;;;;;;28.47;19.27;;;27.80;40.20;26.70;100501;;;;579854;247;26466;-79
2022/04/14 10:46:18;;;;;;;28.10;20.47;;;27.30;40.70;26.30;100505;;;;571458;247;24111;-78
2022/04/14 10:48:51;;;;;;;30.83;20.00;;;26.50;42.00;25.90;100504;;;;569775;243;23103;-79
2022/04/14 10:51:22;;;;;;;36.50;24.33;;;26.50;42.00;25.50;100502;;;;570249;247;23128;-78
2022/04/14 10:54:07;;;;;;;29.03;21.03;;;26.10;42.80;25.10;100502;;;;571046;247;23116;-80
2022/04/14 10:56:34;;;;;;;27.53;19.87;;;25.70;44.30;24.80;100502;;;;570960;247;24072;-78
2022/04/14 10:59:02;;;;;;;36.83;26.30;;;25.40;44.00;24.40;100507;;;;580066;247;23109;-80
2022/04/14 11:01:51;;;;;;;31.00;22.00;;;24.80;45.60;24.30;100518;;;;579499;247;23086;-78
2022/04/14 11:04:38;;;;;;;43.87;30.93;;;24.80;45.60;24.40;100511;;;;579321;247;23122;-79
2022/04/14 11:07:24;;;;;;;28.80;22.20;;;24.80;45.60;24.30;100512;;;;577990;247;24111;-80